Terminal Aerodrome Forecast
Issued by NWS

Home | Current Version | Previous Version | Text Only | Print | Product List | Glossary On
Versions: 1 2 3 4 5 6 7 8 9 10 11 12 13 14 15 16 17
000
FTUS43 KTOP 221700
TAFMHK
TAF
KMHK 221720Z 2218/2318 27012KT 6SM -RA BR OVC015
     FM222100 30012KT P6SM SCT030 OVC080
     FM231200 27008KT 6SM BR BKN025=

USA.gov is the U.S. government's official web portal to all federal, state and local government web resources and services.